WIF457 ENAL-ENBR
Flight info
| Callsign | WIF457 |
|---|---|
| Flight time | 0h 25m |
| Altitude | 24000 |
| Route | TUTOP DCT NIDGI |
| Aircraft | DH8B/M-SDFGR/S |
Departure
| Time | 2026-04-21 11:50 |
|---|---|
| Airport | Ålesund Airport (ENAL) |
Arrival
| Time | 2026-04-21 12:15 |
|---|---|
| Airport | Bergen Airport, Flesland (ENBR) |
| Time | Latitude | Longitude | Altitude | Speed | Heading |
|---|---|---|---|---|---|
| 2026-04-21 11:43 | 62.55873 | 6.11306 | 67 ft | 0 kts | 154° |
| 2026-04-21 11:47 | 62.55874 | 6.11305 | 67 ft | 2 kts | 154° |
| 2026-04-21 11:47 | 62.55889 | 6.11289 | 62 ft | 2 kts | 154° |
| 2026-04-21 11:47 | 62.55904 | 6.11275 | 65 ft | 2 kts | 156° |
| 2026-04-21 11:48 | 62.55919 | 6.11263 | 64 ft | 2 kts | 168° |
| 2026-04-21 11:48 | 62.55928 | 6.11268 | 70 ft | 0 kts | 235° |
| 2026-04-21 11:49 | 62.55925 | 6.11255 | 65 ft | 5 kts | 246° |
| 2026-04-21 11:49 | 62.55896 | 6.11098 | 64 ft | 16 kts | 264° |
| 2026-04-21 11:49 | 62.55921 | 6.10876 | 69 ft | 16 kts | 286° |
| 2026-04-21 11:49 | 62.55955 | 6.10655 | 70 ft | 7 kts | 322° |
| 2026-04-21 11:50 | 62.55975 | 6.10707 | 71 ft | 25 kts | 65° |
| 2026-04-21 11:50 | 62.56228 | 6.11864 | 64 ft | 130 kts | 64° |
| 2026-04-21 11:50 | 62.56673 | 6.13860 | 516 ft | 156 kts | 62° |
| 2026-04-21 11:50 | 62.57215 | 6.16018 | 1152 ft | 167 kts | 49° |
| 2026-04-21 11:51 | 62.58073 | 6.17772 | 1912 ft | 172 kts | 43° |
| 2026-04-21 11:51 | 62.55930 | 6.10812 | 67 ft | 16 kts | 286° |
| 2026-04-21 11:51 | 62.55965 | 6.10636 | 66 ft | 5 kts | 51° |
| 2026-04-21 11:51 | 62.55914 | 6.10921 | 64 ft | 15 kts | 282° |
| 2026-04-21 11:52 | 62.55945 | 6.10683 | 68 ft | 13 kts | 311° |
| 2026-04-21 11:52 | 62.56058 | 6.11087 | 72 ft | 84 kts | 65° |
| 2026-04-21 11:52 | 62.56429 | 6.12769 | 179 ft | 149 kts | 64° |
| 2026-04-21 11:52 | 62.56722 | 6.14115 | 575 ft | 150 kts | 64° |
| 2026-04-21 11:53 | 62.57532 | 6.16607 | 1567 ft | 158 kts | 37° |
| 2026-04-21 11:53 | 62.58207 | 6.18513 | 2323 ft | 166 kts | 74° |
| 2026-04-21 11:53 | 62.58212 | 6.20182 | 2820 ft | 171 kts | 106° |
| 2026-04-21 11:53 | 62.57511 | 6.22252 | 3606 ft | 175 kts | 142° |
| 2026-04-21 11:54 | 62.56367 | 6.23086 | 4377 ft | 179 kts | 182° |
| 2026-04-21 11:54 | 62.54732 | 6.22470 | 5419 ft | 182 kts | 181° |
| 2026-04-21 11:54 | 62.53872 | 6.22519 | 5942 ft | 184 kts | 176° |
| 2026-04-21 11:54 | 62.52584 | 6.22629 | 6732 ft | 187 kts | 180° |
| 2026-04-21 11:55 | 62.51271 | 6.22542 | 7499 ft | 190 kts | 183° |
| 2026-04-21 11:55 | 62.50391 | 6.22444 | 8011 ft | 191 kts | 184° |
| 2026-04-21 11:55 | 62.50064 | 6.22407 | 8192 ft | 192 kts | 184° |
| 2026-04-21 11:56 | 62.48720 | 6.22264 | 8977 ft | 194 kts | 183° |
| 2026-04-21 11:56 | 62.48141 | 6.22204 | 9320 ft | 195 kts | 183° |
| 2026-04-21 11:56 | 62.47488 | 6.22144 | 9708 ft | 197 kts | 183° |
| 2026-04-21 11:56 | 62.46181 | 6.21383 | 10500 ft | 197 kts | 216° |
| 2026-04-21 11:57 | 62.45777 | 6.20624 | 10788 ft | 196 kts | 229° |
| 2026-04-21 11:57 | 62.45313 | 6.19397 | 11196 ft | 196 kts | 232° |
| 2026-04-21 11:57 | 62.44352 | 6.17194 | 11768 ft | 209 kts | 220° |
| 2026-04-21 11:57 | 62.43151 | 6.15261 | 12297 ft | 219 kts | 215° |
| 2026-04-21 11:58 | 62.41884 | 6.13337 | 12837 ft | 227 kts | 216° |
| 2026-04-21 11:58 | 62.40594 | 6.11278 | 13406 ft | 232 kts | 217° |
| 2026-04-21 11:58 | 62.39312 | 6.09169 | 13979 ft | 236 kts | 217° |
| 2026-04-21 11:58 | 62.38001 | 6.06977 | 14543 ft | 239 kts | 217° |
| 2026-04-21 11:59 | 62.36669 | 6.04777 | 15033 ft | 242 kts | 217° |
| 2026-04-21 11:59 | 62.35321 | 6.02574 | 15540 ft | 244 kts | 217° |
| 2026-04-21 11:59 | 62.33978 | 6.00362 | 16045 ft | 247 kts | 217° |
| 2026-04-21 11:59 | 62.32720 | 5.98282 | 16523 ft | 250 kts | 217° |
| 2026-04-21 12:00 | 62.31547 | 5.96356 | 16958 ft | 252 kts | 216° |
| 2026-04-21 12:00 | 62.30323 | 5.94355 | 17415 ft | 254 kts | 216° |
| 2026-04-21 12:00 | 62.28943 | 5.92096 | 17930 ft | 255 kts | 216° |
| 2026-04-21 12:01 | 62.27523 | 5.89766 | 18463 ft | 257 kts | 216° |
| 2026-04-21 12:01 | 62.26112 | 5.87455 | 18972 ft | 259 kts | 216° |
| 2026-04-21 12:01 | 62.24693 | 5.85146 | 19427 ft | 261 kts | 216° |
| 2026-04-21 12:01 | 62.23233 | 5.82771 | 19892 ft | 263 kts | 216° |
| 2026-04-21 12:02 | 62.17617 | 5.73633 | 21734 ft | 269 kts | 215° |
| 2026-04-21 12:02 | 61.95371 | 5.41343 | 24554 ft | 310 kts | 182° |
| 2026-04-21 12:02 | 61.93233 | 5.41116 | 24510 ft | 310 kts | 189° |
| 2026-04-21 12:03 | 61.90630 | 5.38961 | 24515 ft | 312 kts | 207° |
| 2026-04-21 12:03 | 61.82434 | 5.33230 | 24521 ft | 311 kts | 197° |
| 2026-04-21 12:03 | 61.74287 | 5.27313 | 24519 ft | 309 kts | 197° |
| 2026-04-21 12:03 | 61.52562 | 5.12351 | 24497 ft | 309 kts | 198° |
| 2026-04-21 12:04 | 61.27770 | 4.95486 | 24523 ft | 309 kts | 198° |
| 2026-04-21 12:04 | 61.25719 | 4.94083 | 24523 ft | 309 kts | 198° |
| 2026-04-21 12:04 | 61.23700 | 4.92725 | 24524 ft | 309 kts | 198° |
| 2026-04-21 12:04 | 61.21647 | 4.91363 | 24525 ft | 309 kts | 197° |
| 2026-04-21 12:05 | 61.18223 | 4.89061 | 24529 ft | 309 kts | 198° |
| 2026-04-21 12:05 | 61.14116 | 4.86312 | 24531 ft | 307 kts | 197° |
| 2026-04-21 12:05 | 61.10287 | 4.83765 | 23822 ft | 287 kts | 198° |
| 2026-04-21 12:05 | 61.06521 | 4.81254 | 22667 ft | 281 kts | 197° |
| 2026-04-21 12:06 | 61.03884 | 4.80786 | 21896 ft | 278 kts | 178° |
| 2026-04-21 12:06 | 61.01962 | 4.81003 | 21355 ft | 275 kts | 180° |
| 2026-04-21 12:06 | 61.00061 | 4.80887 | 20829 ft | 272 kts | 185° |
| 2026-04-21 12:06 | 60.98175 | 4.80625 | 20305 ft | 270 kts | 184° |
| 2026-04-21 12:07 | 60.96332 | 4.80439 | 19801 ft | 268 kts | 183° |
| 2026-04-21 12:07 | 60.94472 | 4.80311 | 19299 ft | 266 kts | 183° |
| 2026-04-21 12:07 | 60.92623 | 4.80220 | 18804 ft | 265 kts | 183° |
| 2026-04-21 12:07 | 60.90790 | 4.80122 | 18250 ft | 263 kts | 184° |
| 2026-04-21 12:08 | 60.86729 | 4.79874 | 17040 ft | 259 kts | 183° |
| 2026-04-21 12:08 | 60.79583 | 4.79436 | 14943 ft | 255 kts | 183° |
| 2026-04-21 12:08 | 60.72513 | 4.79021 | 12853 ft | 251 kts | 183° |
| 2026-04-21 12:08 | 60.65694 | 4.78620 | 10843 ft | 245 kts | 182° |
| 2026-04-21 12:09 | 60.60152 | 4.78292 | 9138 ft | 242 kts | 182° |
| 2026-04-21 12:09 | 60.50855 | 4.77728 | 6277 ft | 237 kts | 181° |
| 2026-04-21 12:09 | 60.47364 | 4.77539 | 5337 ft | 230 kts | 181° |
| 2026-04-21 12:09 | 60.45806 | 4.77442 | 5023 ft | 224 kts | 181° |
| 2026-04-21 12:10 | 60.44301 | 4.77350 | 4969 ft | 209 kts | 181° |
| 2026-04-21 12:10 | 60.42863 | 4.77369 | 4948 ft | 199 kts | 169° |
| 2026-04-21 12:10 | 60.41428 | 4.79088 | 4812 ft | 191 kts | 126° |
| 2026-04-21 12:10 | 60.40618 | 4.81167 | 4847 ft | 193 kts | 129° |
| 2026-04-21 12:11 | 60.38130 | 4.85350 | 5019 ft | 236 kts | 140° |
| 2026-04-21 12:11 | 60.34018 | 4.91979 | 5027 ft | 257 kts | 139° |
| 2026-04-21 12:11 | 60.32632 | 4.94255 | 5028 ft | 261 kts | 139° |
| 2026-04-21 12:11 | 60.31168 | 4.96661 | 5025 ft | 263 kts | 139° |
| 2026-04-21 12:12 | 60.29766 | 4.98946 | 5018 ft | 264 kts | 140° |
| 2026-04-21 12:12 | 60.28329 | 5.01280 | 5023 ft | 264 kts | 140° |
| 2026-04-21 12:12 | 60.26928 | 5.03560 | 4813 ft | 247 kts | 139° |
| 2026-04-21 12:12 | 60.25702 | 5.05719 | 4496 ft | 217 kts | 133° |
| 2026-04-21 12:13 | 60.24792 | 5.07795 | 4244 ft | 183 kts | 122° |
| 2026-04-21 12:13 | 60.24257 | 5.09943 | 3931 ft | 165 kts | 98° |
| 2026-04-21 12:13 | 60.24189 | 5.12188 | 3472 ft | 167 kts | 84° |
| 2026-04-21 12:13 | 60.24324 | 5.14619 | 3062 ft | 175 kts | 77° |
| 2026-04-21 12:14 | 60.24548 | 5.17048 | 2487 ft | 177 kts | 76° |
| 2026-04-21 12:14 | 60.24844 | 5.19370 | 1962 ft | 165 kts | 66° |
| 2026-04-21 12:14 | 60.25418 | 5.21235 | 1563 ft | 151 kts | 42° |
| 2026-04-21 12:14 | 60.26301 | 5.22145 | 1120 ft | 142 kts | 11° |
| 2026-04-21 12:15 | 60.27277 | 5.22394 | 642 ft | 142 kts | 359° |
| 2026-04-21 12:15 | 60.28240 | 5.22166 | 181 ft | 139 kts | 349° |
| 2026-04-21 12:15 | 60.29085 | 5.21868 | 157 ft | 101 kts | 354° |
| 2026-04-21 12:15 | 60.29374 | 5.21846 | 151 ft | 15 kts | 60° |
| 2026-04-21 12:16 | 60.29393 | 5.22073 | 155 ft | 13 kts | 94° |
| 2026-04-21 12:16 | 60.29302 | 5.22144 | 160 ft | 19 kts | 174° |
| 2026-04-21 12:16 | 60.29154 | 5.22202 | 168 ft | 23 kts | 168° |
| 2026-04-21 12:16 | 60.29062 | 5.22342 | 173 ft | 17 kts | 137° |
| 2026-04-21 12:17 | 60.29045 | 5.22581 | 172 ft | 19 kts | 82° |
| 2026-04-21 12:17 | 60.29051 | 5.22800 | 172 ft | 12 kts | 63° |
| 2026-04-21 12:17 | 60.29085 | 5.22875 | 173 ft | 0 kts | 47° |